Webster Park, Illinois
Current Conditions -  °F | °C
As of 1:55 PM on Saturday 20 Dec 2014 (Local Time) from KVYS Reporting Station
Overcast Overcast  
Wind Chill: 27°   Ceiling: 4600
Heat Index: 33°   Visibility: 7mi
Dew Point: 29°   Wind: 7mph
Humidity: 83%   Direction: 170°S
Pressure: 30.24"   Gusts: NA
Location:  41.3345°N, 89.2159°W
Report Text: KVYS 201955Z AUTO 17006KT 7SM OVC046 01/M02 A3024 RMK AO2 T00071019
Loading
Personal Weather Stations






























Interactive Weather Map New forecast layout! Learn more

10-Day Weather Forecast

Advertisements
Track Severe Weather on mobile